Time;durP1;ratioP1;P1;durP2;ratioP2;P2;SDS_P1;SDS_P2;PMS_P1;PMS_P2;Temp;Humidity;BMP_temperature;BMP_pressure;BME280_temperature;BME280_humidity;BME280_pressure;Samples;Min_cycle;Max_cycle;Signal;HPM_P1;HPM_P2
2023/04/02 00:01:25;;;;;;;1.40;1.40;;;3.30;99.90;;;;;;4976219;28;20310;-65
2023/04/02 00:04:14;;;;;;;1.75;1.48;;;3.60;99.90;;;;;;4917266;29;20225;-65
2023/04/02 00:06:44;;;;;;;1.10;0.98;;;3.40;99.90;;;;;;4973757;28;20553;-65
2023/04/02 00:09:33;;;;;;;1.00;1.00;;;3.50;99.90;;;;;;4975563;28;20199;-66
2023/04/02 00:12:16;;;;;;;0.90;0.90;;;3.60;99.90;;;;;;4975565;28;20215;-66
2023/04/02 00:14:50;;;;;;;1.33;1.20;;;3.60;99.90;;;;;;4976051;28;20216;-66
2023/04/02 00:17:19;;;;;;;1.10;1.10;;;3.60;99.90;;;;;;4976177;28;20187;-66
2023/04/02 05:20:17;;;;;;;1.00;1.00;;;4.50;99.90;;;;;;5410831;23;20242;-66
2023/04/02 05:22:49;;;;;;;0.90;0.90;;;4.50;99.90;;;;;;4978184;28;20222;-66
2023/04/02 05:25:21;;;;;;;1.00;1.00;;;4.50;99.90;;;;;;4978428;28;20276;-66
2023/04/02 05:27:53;;;;;;;0.90;0.90;;;4.60;99.90;;;;;;4978142;28;20563;-66
2023/04/02 05:30:39;;;;;;;0.98;0.98;;;4.60;99.90;;;;;;4978231;28;20234;-66
2023/04/02 05:33:18;;;;;;;0.77;0.77;;;4.60;99.90;;;;;;4978921;28;20187;-68
2023/04/02 05:35:48;;;;;;;1.00;1.00;;;4.70;99.90;;;;;;4977872;28;20532;-69
2023/04/02 05:38:20;;;;;;;0.70;0.70;;;4.70;99.90;;;;;;4978260;28;20200;-68
2023/04/02 05:40:50;;;;;;;1.05;1.05;;;4.80;99.90;;;;;;4978105;28;20215;-68
2023/04/02 05:43:20;;;;;;;1.17;1.10;;;4.80;99.90;;;;;;4978671;28;20199;-68
2023/04/02 05:45:54;;;;;;;1.50;1.40;;;4.80;99.90;;;;;;4978533;28;20203;-69
2023/04/02 05:48:26;;;;;;;1.30;1.30;;;4.90;99.90;;;;;;4978060;28;20202;-69
2023/04/02 05:50:57;;;;;;;1.27;1.27;;;4.90;99.90;;;;;;4977828;28;20255;-68
2023/04/02 05:53:28;;;;;;;1.50;1.40;;;5.00;99.90;;;;;;4977594;28;20246;-68
2023/04/02 05:55:58;;;;;;;1.58;1.58;;;5.00;99.90;;;;;;4977834;28;20190;-68
2023/04/02 05:58:32;;;;;;;1.60;1.60;;;5.00;99.90;;;;;;4978600;28;20599;-68
2023/04/02 06:01:14;;;;;;;1.75;1.25;;;5.10;99.90;;;;;;4977639;28;20220;-68
2023/04/02 06:03:46;;;;;;;1.42;1.40;;;5.10;99.90;;;;;;4977687;28;20227;-68
2023/04/02 06:06:21;;;;;;;1.90;1.90;;;5.20;99.90;;;;;;4977327;28;20607;-68
2023/04/02 06:08:55;;;;;;;2.00;1.90;;;5.30;99.90;;;;;;4977513;28;20191;-68
2023/04/02 06:11:26;;;;;;;1.88;1.88;;;5.30;99.90;;;;;;4977504;28;20207;-68
2023/04/02 06:13:52;;;;;;;2.10;2.00;;;5.30;99.90;;;;;;4977539;28;20203;-70
2023/04/02 06:16:24;;;;;;;1.70;1.70;;;5.30;99.90;;;;;;4977460;28;20215;-67
2023/04/02 06:18:50;;;;;;;1.75;1.75;;;5.40;99.90;;;;;;4977120;28;20191;-69
2023/04/02 06:21:21;;;;;;;1.70;1.70;;;5.40;99.90;;;;;;4977254;28;20258;-69
2023/04/02 06:23:53;;;;;;;1.50;1.50;;;5.40;99.90;;;;;;4977364;28;20192;-69
2023/04/02 06:26:25;;;;;;;2.30;2.20;;;5.50;99.90;;;;;;4977275;28;20198;-69
2023/04/02 06:28:57;;;;;;;2.00;1.90;;;5.60;99.90;;;;;;4976898;28;20698;-69
2023/04/02 06:31:30;;;;;;;1.80;1.80;;;5.60;99.90;;;;;;4977581;28;20248;-68
2023/04/02 06:33:57;;;;;;;1.92;1.92;;;5.80;99.90;;;;;;4977230;28;20194;-69
2023/04/02 06:36:27;;;;;;;2.17;2.08;;;5.90;99.90;;;;;;4976971;28;20204;-68
2023/04/02 06:38:57;;;;;;;2.20;2.10;;;6.00;99.90;;;;;;4977220;28;20203;-67
2023/04/02 06:41:25;;;;;;;2.08;2.08;;;6.10;99.90;;;;;;4977050;28;20713;-68
2023/04/02 06:43:55;;;;;;;2.22;2.13;;;6.20;99.90;;;;;;4977189;28;20207;-68
2023/04/02 06:46:27;;;;;;;2.10;2.00;;;6.20;99.90;;;;;;4976729;28;20666;-68
2023/04/02 06:49:01;;;;;;;1.90;1.90;;;6.30;99.90;;;;;;4977257;28;20191;-68
2023/04/02 06:51:31;;;;;;;2.55;2.35;;;6.50;99.90;;;;;;4976454;28;20212;-68
2023/04/02 06:53:57;;;;;;;2.15;2.05;;;6.60;99.90;;;;;;4976831;28;20247;-69
2023/04/02 06:56:38;;;;;;;2.08;2.00;;;6.70;99.90;;;;;;4976708;28;20207;-69
2023/04/02 06:59:06;;;;;;;2.15;2.13;;;6.80;99.90;;;;;;4976328;28;20733;-68
2023/04/02 07:01:36;;;;;;;2.40;2.30;;;7.00;99.90;;;;;;4976625;28;20606;-68
2023/04/02 07:04:03;;;;;;;1.60;1.60;;;7.30;99.90;;;;;;4976625;28;20562;-68
2023/04/02 07:06:31;;;;;;;1.88;1.77;;;7.50;99.90;;;;;;4976249;28;20211;-67
2023/04/02 07:08:58;;;;;;;1.60;1.50;;;7.60;99.90;;;;;;4976316;28;20617;-67
2023/04/02 07:11:25;;;;;;;1.50;1.40;;;7.60;99.90;;;;;;4976312;28;20242;-68
2023/04/02 07:13:51;;;;;;;1.33;1.23;;;7.60;99.90;;;;;;4976123;28;20210;-69
2023/04/02 07:16:21;;;;;;;1.30;1.30;;;7.70;99.90;;;;;;4976368;28;20211;-68
2023/04/02 07:18:49;;;;;;;1.00;1.00;;;7.80;99.90;;;;;;4976264;28;20262;-67
2023/04/02 07:21:15;;;;;;;2.03;1.88;;;8.00;99.90;;;;;;4976205;28;20203;-69
2023/04/02 07:23:43;;;;;;;1.63;1.50;;;8.20;99.90;;;;;;4975929;28;20674;-69
2023/04/02 07:26:14;;;;;;;1.10;1.10;;;8.50;99.90;;;;;;4975866;28;20662;-69
2023/04/02 07:28:41;;;;;;;1.85;0.80;;;8.80;99.90;;;;;;4976249;28;20211;-68
2023/04/02 07:31:16;;;;;;;0.90;0.90;;;9.10;99.90;;;;;;4975393;28;20219;-69
2023/04/02 07:33:43;;;;;;;1.00;0.85;;;9.30;99.90;;;;;;4976112;28;20221;-69
2023/04/02 07:36:13;;;;;;;3.53;0.90;;;9.40;99.90;;;;;;4975936;28;20203;-68
2023/04/02 07:38:41;;;;;;;0.60;0.60;;;9.40;99.90;;;;;;4979547;28;20184;-69
2023/04/02 07:41:09;;;;;;;0.70;0.70;;;9.40;99.90;;;;;;4981009;28;20199;-69
2023/04/02 07:43:36;;;;;;;0.60;0.60;;;9.40;99.90;;;;;;4980208;28;20235;-68
2023/04/02 07:46:04;;;;;;;0.50;0.50;;;9.50;99.90;;;;;;4980474;28;20252;-68
2023/04/02 07:48:32;;;;;;;0.52;0.50;;;9.50;99.90;;;;;;4979961;28;20235;-69
2023/04/02 07:50:59;;;;;;;0.95;0.50;;;9.60;99.90;;;;;;4979587;28;20270;-69
2023/04/02 07:53:29;;;;;;;0.50;0.50;;;9.60;99.90;;;;;;4980463;28;20239;-68
2023/04/02 07:55:57;;;;;;;0.55;0.55;;;9.70;99.90;;;;;;4979848;28;20230;-67
2023/04/02 07:58:26;;;;;;;0.55;0.55;;;9.80;99.90;;;;;;4980161;28;20250;-67
2023/04/02 08:00:52;;;;;;;0.43;0.43;;;10.00;99.90;;;;;;4978680;28;20293;-67
2023/04/02 08:03:19;;;;;;;0.60;0.60;;;10.10;99.90;;;;;;4975479;28;20203;-67
2023/04/02 08:05:51;;;;;;;0.73;0.60;;;10.10;99.90;;;;;;4975394;28;20199;-67
2023/04/02 08:08:17;;;;;;;1.55;0.47;;;10.20;99.90;;;;;;4975162;28;20647;-68
2023/04/02 08:10:44;;;;;;;0.68;0.50;;;10.20;99.90;;;;;;4975263;28;20235;-68
2023/04/02 08:13:11;;;;;;;0.50;0.50;;;10.20;99.90;;;;;;4975218;28;20207;-69
2023/04/02 08:15:39;;;;;;;0.43;0.43;;;10.10;99.90;;;;;;4975316;28;20199;-68
2023/04/02 08:18:06;;;;;;;1.10;0.73;;;10.00;99.90;;;;;;4975304;28;20203;-67
2023/04/02 08:20:33;;;;;;;0.70;0.52;;;9.90;99.90;;;;;;4975314;28;20694;-68
2023/04/02 08:23:00;;;;;;;0.43;0.43;;;10.00;99.90;;;;;;4975003;28;20211;-67
2023/04/02 08:25:27;;;;;;;0.50;0.50;;;9.90;99.90;;;;;;4975215;28;20230;-68
2023/04/02 08:27:53;;;;;;;0.30;0.30;;;9.80;99.90;;;;;;4975047;28;20214;-67
2023/04/02 08:30:21;;;;;;;0.45;0.45;;;9.90;99.90;;;;;;4975077;28;20235;-67
2023/04/02 08:32:49;;;;;;;2.63;0.40;;;9.80;99.90;;;;;;4974946;28;20223;-67
2023/04/02 08:35:17;;;;;;;0.77;0.52;;;9.90;99.90;;;;;;4974919;28;20214;-68
2023/04/02 08:37:44;;;;;;;0.43;0.43;;;10.00;99.90;;;;;;4974890;28;20199;-67
2023/04/02 08:40:22;;;;;;;0.40;0.40;;;10.40;99.90;;;;;;4974902;28;20230;-67
2023/04/02 08:43:03;;;;;;;1.38;0.47;;;10.60;99.90;;;;;;4975342;28;20238;-67
2023/04/02 08:45:41;;;;;;;0.50;0.50;;;10.80;99.90;;;;;;4974995;28;20198;-67
2023/04/02 08:48:12;;;;;;;0.85;0.60;;;10.90;99.90;;;;;;4974549;28;20550;-66
2023/04/02 08:50:41;;;;;;;0.40;0.40;;;11.10;99.90;;;;;;4974534;28;20318;-68
2023/04/02 08:53:13;;;;;;;0.47;0.47;;;11.30;99.90;;;;;;4974492;28;20211;-68
2023/04/02 08:55:46;;;;;;;0.50;0.45;;;11.50;99.90;;;;;;4974432;28;20595;-68
2023/04/02 08:58:24;;;;;;;0.50;0.50;;;11.80;99.90;;;;;;4974865;28;20275;-69
2023/04/02 09:00:54;;;;;;;0.60;0.60;;;12.00;99.90;;;;;;4974669;28;20245;-69
2023/04/02 09:03:29;;;;;;;0.80;0.80;;;12.20;99.90;;;;;;4974766;28;20191;-69
2023/04/02 09:05:58;;;;;;;0.50;0.50;;;12.30;99.90;;;;;;4975334;28;20195;-68
2023/04/02 09:08:26;;;;;;;0.50;0.50;;;12.50;99.90;;;;;;4974552;28;20203;-69
2023/04/02 09:10:59;;;;;;;0.80;0.60;;;12.80;99.90;;;;;;4974399;28;20746;-69
2023/04/02 09:13:29;;;;;;;0.90;0.50;;;13.00;99.90;;;;;;4974543;28;20685;-69
2023/04/02 09:16:02;;;;;;;0.30;0.30;;;13.20;99.90;;;;;;4975359;28;20203;-69
2023/04/02 09:18:32;;;;;;;0.30;0.30;;;13.30;99.90;;;;;;4977397;28;20188;-68
2023/04/02 09:21:00;;;;;;;0.30;0.30;;;13.40;99.90;;;;;;4975911;28;20227;-68
2023/04/02 09:23:27;;;;;;;0.52;0.40;;;13.40;99.90;;;;;;4974091;28;20222;-68
2023/04/02 09:25:54;;;;;;;0.30;0.30;;;13.40;99.90;;;;;;4974493;28;20238;-68
2023/04/02 09:28:22;;;;;;;0.25;0.25;;;13.40;99.90;;;;;;4974997;28;20207;-68
2023/04/02 09:31:01;;;;;;;0.30;0.30;;;13.40;99.90;;;;;;4974295;28;20305;-67
2023/04/02 09:33:45;;;;;;;0.30;0.30;;;13.30;99.90;;;;;;4974609;28;20210;-68
2023/04/02 09:36:33;;;;;;;0.30;0.30;;;13.10;99.90;;;;;;4974488;28;20191;-68
2023/04/02 09:39:05;;;;;;;2.03;0.30;;;12.90;99.90;;;;;;4974323;28;20223;-68
2023/04/02 09:41:33;;;;;;;0.47;0.40;;;12.70;99.90;;;;;;4974458;28;20214;-68
2023/04/02 09:44:18;;;;;;;0.20;0.20;;;12.50;99.90;;;;;;4974371;28;20199;-68
2023/04/02 09:46:53;;;;;;;0.30;0.30;;;12.50;99.90;;;;;;4974360;28;20274;-68
2023/04/02 09:49:24;;;;;;;0.40;0.40;;;12.50;99.90;;;;;;4974239;28;20297;-69
2023/04/02 09:52:08;;;;;;;0.28;0.28;;;12.40;99.90;;;;;;4974003;28;20578;-69
2023/04/02 09:54:40;;;;;;;0.38;0.38;;;12.30;99.90;;;;;;4976366;28;20242;-69
2023/04/02 09:57:22;;;;;;;1.42;0.40;;;12.30;99.90;;;;;;4977821;28;20643;-69
2023/04/02 10:00:08;;;;;;;0.30;0.30;;;12.20;99.90;;;;;;4977913;28;20227;-68
2023/04/02 10:02:35;;;;;;;0.40;0.40;;;12.00;99.90;;;;;;4977912;28;20238;-69
2023/04/02 10:05:06;;;;;;;0.30;0.30;;;11.70;99.90;;;;;;4977793;28;20302;-67
2023/04/02 10:07:36;;;;;;;0.38;0.38;;;11.50;99.90;;;;;;4978140;28;20278;-67
2023/04/02 10:10:15;;;;;;;1.35;0.70;;;11.40;99.90;;;;;;4977608;28;20234;-67
2023/04/02 10:12:44;;;;;;;0.30;0.30;;;11.10;99.90;;;;;;4977496;28;20203;-67
2023/04/02 10:15:17;;;;;;;0.40;0.40;;;11.00;99.90;;;;;;4977570;28;20602;-68
2023/04/02 10:17:44;;;;;;;0.40;0.40;;;10.90;99.90;;;;;;4977666;28;20595;-69
2023/04/02 10:20:19;;;;;;;0.88;0.65;;;10.80;99.90;;;;;;4977818;28;20223;-69
2023/04/02 10:22:47;;;;;;;0.55;0.55;;;10.60;99.90;;;;;;4978222;28;20655;-68
2023/04/02 10:25:15;;;;;;;1.45;1.35;;;10.60;99.90;;;;;;4977437;28;20199;-69
2023/04/02 10:27:51;;;;;;;0.80;0.80;;;10.50;99.90;;;;;;4978007;28;20246;-66
2023/04/02 10:30:44;;;;;;;1.45;0.60;;;10.40;99.90;;;;;;4981934;28;20222;-68
2023/04/02 10:33:18;;;;;;;0.50;0.50;;;10.40;99.90;;;;;;4982318;28;20278;-70
2023/04/02 10:35:52;;;;;;;0.40;0.40;;;10.40;99.90;;;;;;4977242;28;20192;-68
2023/04/02 10:38:41;;;;;;;0.50;0.50;;;10.40;99.90;;;;;;4977690;28;20190;-69
2023/04/02 10:41:22;;;;;;;0.30;0.30;;;10.40;99.90;;;;;;4976761;28;20639;-69
2023/04/02 10:44:05;;;;;;;0.40;0.40;;;10.30;99.90;;;;;;4977406;28;20195;-67
2023/04/02 10:46:36;;;;;;;0.30;0.30;;;10.50;99.90;;;;;;4976758;28;20198;-67
2023/04/02 10:49:11;;;;;;;1.20;0.70;;;10.50;99.90;;;;;;4977411;28;20227;-68
2023/04/02 10:51:44;;;;;;;0.75;0.75;;;10.60;99.90;;;;;;4976823;28;20311;-68
2023/04/02 10:54:33;;;;;;;4.78;1.38;;;10.60;99.90;;;;;;4977000;28;20191;-67
2023/04/02 10:57:06;;;;;;;4.38;1.73;;;10.60;99.90;;;;;;4976847;28;20188;-68
2023/04/02 10:59:37;;;;;;;2.67;1.20;;;10.60;99.90;;;;;;4976859;28;20293;-68
2023/04/02 11:02:20;;;;;;;0.80;0.70;;;10.60;99.90;;;;;;4976506;28;20686;-69
2023/04/02 11:04:47;;;;;;;0.45;0.45;;;10.60;99.90;;;;;;4976318;28;20210;-67
2023/04/02 11:07:19;;;;;;;0.52;0.52;;;10.70;99.90;;;;;;4976174;28;20203;-67
2023/04/02 11:09:49;;;;;;;0.40;0.40;;;10.80;99.90;;;;;;4976571;28;20286;-66
2023/04/02 11:12:22;;;;;;;1.00;0.60;;;10.80;99.90;;;;;;4976479;28;20230;-66
2023/04/02 11:14:50;;;;;;;0.80;0.80;;;10.80;99.90;;;;;;4976554;28;20194;-66
2023/04/02 11:17:18;;;;;;;0.50;0.50;;;10.80;99.90;;;;;;4976527;28;20242;-66
2023/04/02 11:19:44;;;;;;;0.55;0.55;;;10.80;99.90;;;;;;4976343;28;20300;-67
2023/04/02 11:22:17;;;;;;;0.40;0.40;;;10.90;99.90;;;;;;4976135;28;20233;-66
2023/04/02 11:24:46;;;;;;;1.00;0.55;;;11.00;99.90;;;;;;4975972;28;20639;-65
2023/04/02 11:27:18;;;;;;;1.45;0.82;;;10.90;99.90;;;;;;4976400;28;20207;-63
2023/04/02 11:29:47;;;;;;;0.75;0.70;;;10.80;99.90;;;;;;4976449;28;20219;-66
2023/04/02 11:32:37;;;;;;;1.27;0.70;;;10.80;99.90;;;;;;4976430;28;20254;-65
2023/04/02 11:35:27;;;;;;;0.40;0.40;;;10.80;99.90;;;;;;4979219;28;20203;-67
2023/04/02 11:37:57;;;;;;;0.38;0.38;;;11.00;99.90;;;;;;4979590;28;20636;-68
2023/04/02 11:40:47;;;;;;;0.40;0.40;;;11.10;99.90;;;;;;4981924;28;20274;-65
2023/04/02 11:43:59;;;;;;;0.40;0.40;;;11.20;99.90;;;;;;4982961;28;20250;-65
2023/04/02 11:46:50;;;;;;;0.30;0.30;;;11.30;99.90;;;;;;4983191;28;20279;-67
2023/04/02 11:50:01;;;;;;;1.23;0.50;;;11.50;99.90;;;;;;4981226;28;20219;-69
2023/04/02 11:52:35;;;;;;;0.95;0.50;;;11.70;99.90;;;;;;4978676;28;20246;-67
2023/04/02 11:55:25;;;;;;;0.45;0.45;;;11.90;99.90;;;;;;4977631;28;20239;-67
2023/04/02 11:58:28;;;;;;;0.32;0.32;;;12.20;99.90;;;;;;4978862;28;20572;-67
2023/04/02 12:01:29;;;;;;;0.30;0.30;;;12.50;99.90;;;;;;4978344;28;20277;-67
2023/04/02 12:04:22;;;;;;;0.75;0.47;;;12.70;99.90;;;;;;4979032;28;20187;-67
2023/04/02 12:07:00;;;;;;;0.50;0.50;;;12.90;99.90;;;;;;4978724;28;20191;-68
2023/04/02 12:09:29;;;;;;;0.40;0.40;;;13.00;99.90;;;;;;4979440;28;20226;-67
2023/04/02 12:12:00;;;;;;;0.22;0.22;;;13.00;99.90;;;;;;4977609;28;20215;-68
2023/04/02 12:14:41;;;;;;;0.40;0.40;;;13.10;99.90;;;;;;4978522;28;20262;-67
2023/04/02 12:17:18;;;;;;;0.30;0.30;;;13.10;99.90;;;;;;4977173;28;20191;-67
2023/04/02 12:19:54;;;;;;;0.38;0.38;;;13.20;99.90;;;;;;4979471;28;20227;-67
2023/04/02 12:22:24;;;;;;;0.40;0.40;;;13.20;99.90;;;;;;4979295;28;20206;-67
2023/04/02 12:24:55;;;;;;;0.38;0.38;;;13.20;99.20;;;;;;4979100;28;20183;-67
2023/04/02 12:27:28;;;;;;;0.30;0.30;;;13.20;99.90;;;;;;4978608;28;20195;-67
2023/04/02 12:29:56;;;;;;;0.38;0.38;;;13.20;99.90;;;;;;4979133;28;20242;-67
2023/04/02 12:32:28;;;;;;;0.30;0.30;;;13.20;99.90;;;;;;4978598;28;20219;-67
2023/04/02 12:34:57;;;;;;;0.30;0.30;;;12.80;96.60;;;;;;4979425;28;20199;-66
2023/04/02 12:37:26;;;;;;;0.28;0.28;;;12.60;99.50;;;;;;4978213;28;20242;-66
2023/04/02 12:39:56;;;;;;;0.30;0.30;;;12.60;99.90;;;;;;4978523;28;20302;-67
2023/04/02 12:42:30;;;;;;;0.30;0.30;;;12.70;99.90;;;;;;4978449;28;20223;-65
2023/04/02 12:44:57;;;;;;;0.30;0.30;;;12.80;99.90;;;;;;4977325;28;20202;-67
2023/04/02 12:47:24;;;;;;;1.40;0.77;;;12.90;99.90;;;;;;4976386;28;20245;-67
2023/04/02 12:49:52;;;;;;;0.88;0.88;;;13.00;99.90;;;;;;4974749;28;20223;-67
2023/04/02 12:52:21;;;;;;;0.63;0.43;;;13.10;99.90;;;;;;4974712;28;20222;-67
2023/04/02 12:54:50;;;;;;;0.40;0.40;;;13.20;93.30;;;;;;4974725;28;20235;-67
2023/04/02 12:57:37;;;;;;;0.30;0.30;;;13.00;93.60;;;;;;4974505;28;20214;-67
2023/04/02 13:00:29;;;;;;;0.40;0.40;;;13.00;98.40;;;;;;4974734;28;20226;-67
2023/04/02 13:03:01;;;;;;;0.30;0.30;;;13.10;99.90;;;;;;4974785;28;20191;-67
2023/04/02 13:05:35;;;;;;;0.50;0.50;;;13.00;92.40;;;;;;4975097;28;20199;-67
2023/04/02 13:08:04;;;;;;;0.40;0.40;;;12.90;95.80;;;;;;4974808;28;20238;-67
2023/04/02 13:10:31;;;;;;;3.25;0.75;;;13.00;96.40;;;;;;4974917;28;20227;-67
2023/04/02 13:13:01;;;;;;;0.50;0.50;;;12.80;99.90;;;;;;4974510;28;20223;-67
2023/04/02 13:15:30;;;;;;;0.50;0.50;;;12.40;99.90;;;;;;4974662;28;20273;-67
2023/04/02 13:18:07;;;;;;;0.60;0.60;;;11.90;99.90;;;;;;4974556;28;20203;-67
2023/04/02 13:20:36;;;;;;;2.55;0.50;;;11.40;99.90;;;;;;4974434;28;20269;-67
2023/04/02 13:23:25;;;;;;;0.50;0.50;;;11.00;99.90;;;;;;4974069;28;20683;-67
2023/04/02 13:25:52;;;;;;;0.50;0.50;;;10.60;99.90;;;;;;4974701;28;20215;-65
2023/04/02 13:28:18;;;;;;;0.40;0.40;;;10.40;99.90;;;;;;4974762;28;20203;-67
2023/04/02 13:30:45;;;;;;;0.65;0.65;;;10.20;99.90;;;;;;4978297;28;20231;-66
2023/04/02 13:33:12;;;;;;;0.55;0.55;;;10.10;99.90;;;;;;4978348;28;20246;-67
2023/04/02 13:35:39;;;;;;;0.60;0.60;;;9.90;99.90;;;;;;4978253;28;20214;-67
2023/04/02 13:38:07;;;;;;;0.68;0.55;;;9.80;99.90;;;;;;4978236;28;20199;-67
2023/04/02 13:40:36;;;;;;;0.45;0.45;;;9.70;99.90;;;;;;4978175;28;20223;-67
2023/04/02 13:43:04;;;;;;;0.55;0.55;;;9.60;99.90;;;;;;4978137;28;20208;-67
2023/04/02 13:45:33;;;;;;;0.40;0.40;;;9.50;99.90;;;;;;4977738;28;20199;-67
2023/04/02 13:48:02;;;;;;;0.60;0.47;;;9.40;99.90;;;;;;4978241;28;20211;-64
2023/04/02 13:50:30;;;;;;;0.55;0.55;;;9.20;99.90;;;;;;4978130;28;20224;-64
2023/04/02 13:52:59;;;;;;;0.50;0.50;;;9.10;99.90;;;;;;4977599;28;20718;-64
2023/04/02 13:55:29;;;;;;;0.40;0.40;;;9.00;99.90;;;;;;4977743;28;20675;-65
2023/04/02 13:57:57;;;;;;;0.45;0.45;;;8.90;99.90;;;;;;4978443;28;20202;-65
2023/04/02 14:00:25;;;;;;;0.50;0.50;;;8.90;99.90;;;;;;4980512;28;20227;-65
2023/04/02 14:02:55;;;;;;;0.50;0.50;;;9.00;99.90;;;;;;4981437;28;20206;-65
2023/04/02 14:05:32;;;;;;;0.68;0.55;;;9.10;99.90;;;;;;4980476;28;20188;-65
2023/04/02 14:08:08;;;;;;;0.80;0.80;;;9.20;99.90;;;;;;4977877;28;20278;-67
2023/04/02 14:10:53;;;;;;;1.00;1.00;;;9.40;99.90;;;;;;4977611;28;20261;-68
2023/04/02 14:13:39;;;;;;;1.70;1.60;;;9.60;99.90;;;;;;4977735;28;20211;-68
2023/04/02 14:16:23;;;;;;;2.00;1.75;;;9.80;99.90;;;;;;4977252;28;20188;-67
2023/04/02 14:19:03;;;;;;;1.85;1.75;;;9.90;99.90;;;;;;4977134;28;20671;-67
2023/04/02 14:21:39;;;;;;;0.88;0.88;;;10.00;99.90;;;;;;4977330;28;20531;-65
2023/04/02 14:24:16;;;;;;;0.47;0.47;;;9.90;99.90;;;;;;4977055;28;20564;-65
2023/04/02 14:27:03;;;;;;;0.77;0.60;;;9.90;99.90;;;;;;4977400;28;20188;-65
2023/04/02 14:29:38;;;;;;;1.67;1.10;;;9.70;99.90;;;;;;4977195;28;20239;-65
2023/04/02 14:32:09;;;;;;;0.68;0.68;;;9.50;99.90;;;;;;4977433;28;20187;-65
2023/04/02 14:34:42;;;;;;;0.75;0.75;;;9.30;99.90;;;;;;4977178;28;20212;-65
2023/04/02 14:37:18;;;;;;;0.90;0.88;;;9.20;99.90;;;;;;4977379;28;20195;-67
2023/04/02 14:39:53;;;;;;;0.65;0.65;;;9.10;99.90;;;;;;4976871;28;20223;-67
2023/04/02 14:42:26;;;;;;;0.70;0.70;;;9.00;99.90;;;;;;4976734;28;20695;-67
2023/04/02 14:45:00;;;;;;;0.50;0.50;;;9.10;99.90;;;;;;4977082;28;20536;-67
2023/04/02 14:47:31;;;;;;;0.50;0.47;;;9.30;99.90;;;;;;4977042;28;20187;-68
2023/04/02 14:50:05;;;;;;;0.40;0.40;;;9.30;99.90;;;;;;4977033;28;20224;-68
2023/04/02 14:52:35;;;;;;;0.65;0.65;;;9.30;99.90;;;;;;4977178;28;20198;-67
2023/04/02 14:55:04;;;;;;;0.60;0.60;;;9.20;99.90;;;;;;4976561;28;20690;-67
2023/04/02 14:57:35;;;;;;;0.45;0.45;;;9.20;99.90;;;;;;4976774;28;20203;-67
2023/04/02 15:00:07;;;;;;;0.57;0.57;;;9.20;99.90;;;;;;4977046;28;20223;-66
2023/04/02 15:02:42;;;;;;;0.57;0.57;;;9.10;99.90;;;;;;4976383;28;20532;-67
2023/04/02 15:05:17;;;;;;;0.80;0.80;;;9.00;99.90;;;;;;4976871;28;20203;-65
2023/04/02 15:07:49;;;;;;;0.50;0.50;;;9.00;99.90;;;;;;4976823;28;20241;-65
2023/04/02 15:10:23;;;;;;;0.40;0.40;;;8.90;99.90;;;;;;4976574;28;20254;-65
2023/04/02 15:12:52;;;;;;;0.50;0.50;;;8.80;99.90;;;;;;4976465;28;20199;-65
2023/04/02 15:15:31;;;;;;;1.27;0.70;;;8.70;99.90;;;;;;4976318;28;20214;-65
2023/04/02 15:17:59;;;;;;;0.60;0.60;;;8.60;99.90;;;;;;4976463;28;20199;-64
2023/04/02 15:20:40;;;;;;;2.08;0.60;;;8.60;99.90;;;;;;4977091;28;20229;-65
2023/04/02 15:23:15;;;;;;;2.38;0.70;;;8.50;99.90;;;;;;4976994;28;20302;-67
2023/04/02 15:25:48;;;;;;;1.25;0.90;;;8.40;99.90;;;;;;4976306;28;20183;-67
2023/04/02 15:28:26;;;;;;;1.45;1.10;;;8.30;99.90;;;;;;4976343;28;20183;-66
2023/04/02 15:30:57;;;;;;;0.68;0.68;;;8.30;99.90;;;;;;4976407;28;20344;-64
2023/04/02 15:33:44;;;;;;;1.88;0.80;;;8.10;99.90;;;;;;4976359;28;20294;-64
2023/04/02 15:36:28;;;;;;;0.80;0.80;;;7.90;99.90;;;;;;4975964;28;20710;-64
2023/04/02 15:39:05;;;;;;;1.13;1.08;;;7.50;99.90;;;;;;4976033;28;20274;-64
2023/04/02 15:41:35;;;;;;;1.08;1.08;;;7.40;99.90;;;;;;4975882;28;20598;-65
2023/04/02 15:44:08;;;;;;;0.90;0.90;;;7.30;99.90;;;;;;4976375;28;20186;-65
2023/04/02 15:46:50;;;;;;;0.77;0.75;;;7.30;99.90;;;;;;4975856;28;20195;-66
2023/04/02 15:49:32;;;;;;;1.70;1.60;;;7.30;99.90;;;;;;4975985;28;20249;-66
2023/04/02 15:52:06;;;;;;;2.08;1.95;;;7.30;99.90;;;;;;4975051;28;20550;-67
2023/04/02 15:54:45;;;;;;;1.85;1.75;;;7.10;99.90;;;;;;4976008;28;20207;-67
2023/04/02 15:57:22;;;;;;;1.30;1.25;;;7.10;99.90;;;;;;4975467;28;20187;-67
2023/04/02 16:00:14;;;;;;;1.50;1.50;;;7.00;99.90;;;;;;4975615;28;20711;-68
2023/04/02 16:03:17;;;;;;;1.27;1.27;;;7.00;99.90;;;;;;4975711;28;20262;-67
2023/04/02 16:05:51;;;;;;;1.00;1.00;;;7.00;99.90;;;;;;4944741;28;20203;-67
2023/04/02 16:08:32;;;;;;;1.70;1.60;;;7.10;99.90;;;;;;4975550;28;20218;-67
2023/04/02 16:10:58;;;;;;;1.65;1.48;;;7.00;99.90;;;;;;4975668;28;20233;-67
2023/04/02 16:13:29;;;;;;;1.35;1.25;;;7.10;99.90;;;;;;4974973;28;20699;-67
2023/04/02 16:16:04;;;;;;;1.45;1.35;;;7.00;99.90;;;;;;4975111;28;20658;-67
2023/04/02 16:18:41;;;;;;;1.98;1.88;;;7.00;99.90;;;;;;4975496;28;20191;-66
2023/04/02 16:21:10;;;;;;;1.50;1.40;;;7.10;99.90;;;;;;4975321;28;20228;-66
2023/04/02 16:23:39;;;;;;;2.08;1.25;;;7.00;99.90;;;;;;4974806;28;20211;-67
2023/04/02 16:26:20;;;;;;;1.05;1.05;;;7.00;99.90;;;;;;4975104;28;20671;-67
2023/04/02 16:28:55;;;;;;;1.98;1.75;;;7.00;99.90;;;;;;4975815;28;20219;-66
2023/04/02 16:31:30;;;;;;;1.70;1.60;;;7.00;99.90;;;;;;4975045;28;20595;-66
2023/04/02 16:34:05;;;;;;;1.63;1.52;;;7.00;99.90;;;;;;4974987;28;20211;-67
2023/04/02 16:36:42;;;;;;;1.00;1.00;;;7.00;99.90;;;;;;4975107;28;20262;-67
2023/04/02 16:39:22;;;;;;;0.90;0.90;;;6.90;99.90;;;;;;4974650;28;20719;-67
2023/04/02 16:41:59;;;;;;;0.75;0.75;;;6.90;99.90;;;;;;4975018;28;20257;-67
2023/04/02 16:44:36;;;;;;;0.60;0.60;;;6.80;99.90;;;;;;4974681;28;20657;-67
2023/04/02 16:47:23;;;;;;;0.40;0.40;;;6.80;99.90;;;;;;4975148;28;20196;-67
2023/04/02 16:49:57;;;;;;;0.75;0.75;;;6.80;99.90;;;;;;4974542;28;20580;-66
2023/04/02 16:52:34;;;;;;;0.60;0.60;;;6.70;99.90;;;;;;4974980;28;20192;-66
2023/04/02 16:55:18;;;;;;;0.63;0.63;;;6.70;99.90;;;;;;4974469;28;20716;-67
2023/04/02 16:57:54;;;;;;;0.60;0.60;;;6.60;99.90;;;;;;4975927;28;20198;-67
2023/04/02 17:00:26;;;;;;;0.63;0.63;;;6.60;99.90;;;;;;4975085;28;20227;-67
2023/04/02 17:03:02;;;;;;;0.82;0.82;;;6.60;99.90;;;;;;4974964;28;20238;-68
2023/04/02 17:05:31;;;;;;;0.65;0.65;;;6.60;99.90;;;;;;4975002;28;20654;-70
2023/04/02 17:08:14;;;;;;;1.33;0.75;;;6.70;99.90;;;;;;4974958;28;20227;-68
2023/04/02 17:10:50;;;;;;;0.60;0.60;;;6.60;99.90;;;;;;4975716;28;20238;-68
2023/04/02 17:13:26;;;;;;;0.60;0.60;;;6.60;99.90;;;;;;4974465;28;20218;-67
2023/04/02 17:16:01;;;;;;;0.50;0.50;;;6.60;99.90;;;;;;4974798;28;20226;-68
2023/04/02 17:18:28;;;;;;;0.95;0.60;;;6.50;99.90;;;;;;4974607;28;20217;-67
2023/04/02 17:21:04;;;;;;;0.50;0.50;;;6.50;99.90;;;;;;4974562;28;20227;-67
2023/04/02 17:23:34;;;;;;;0.57;0.57;;;6.40;99.90;;;;;;4974413;28;20214;-68
2023/04/02 17:26:06;;;;;;;0.80;0.57;;;6.40;99.90;;;;;;4974606;28;20211;-68
2023/04/02 17:28:36;;;;;;;0.70;0.70;;;6.30;99.90;;;;;;4975156;28;20191;-67
2023/04/02 17:31:06;;;;;;;0.60;0.60;;;6.30;99.90;;;;;;4974919;28;20254;-68
2023/04/02 17:33:33;;;;;;;0.55;0.55;;;6.30;99.90;;;;;;4974725;28;20203;-68
2023/04/02 17:36:21;;;;;;;0.70;0.70;;;6.40;99.90;;;;;;4974242;28;20695;-67
2023/04/02 17:38:56;;;;;;;0.60;0.60;;;6.40;99.90;;;;;;4974165;28;20698;-66
2023/04/02 17:41:30;;;;;;;0.60;0.60;;;6.40;99.90;;;;;;4974872;28;20210;-67
2023/04/02 17:44:04;;;;;;;0.57;0.57;;;6.50;99.90;;;;;;4974870;28;20188;-68
2023/04/02 17:46:36;;;;;;;0.52;0.52;;;6.40;99.90;;;;;;4974785;28;20195;-68
2023/04/02 17:49:11;;;;;;;0.85;0.85;;;6.40;99.90;;;;;;4974404;28;20231;-67
2023/04/02 17:51:45;;;;;;;0.52;0.52;;;6.40;99.90;;;;;;4974124;28;20192;-68
2023/04/02 17:54:29;;;;;;;0.75;0.75;;;6.40;99.90;;;;;;4974375;28;20224;-68
2023/04/02 17:57:19;;;;;;;1.25;1.23;;;6.40;99.90;;;;;;4974027;28;20214;-68
2023/04/02 17:59:59;;;;;;;1.50;1.50;;;6.30;99.90;;;;;;4973974;28;20234;-68
2023/04/02 18:02:41;;;;;;;1.70;1.70;;;6.30;99.90;;;;;;4974160;28;20199;-67
2023/04/02 18:05:16;;;;;;;1.30;1.30;;;6.30;99.90;;;;;;4973977;28;20647;-67
2023/04/02 18:07:51;;;;;;;1.48;1.45;;;6.30;99.90;;;;;;4973857;28;20198;-67
2023/04/02 18:10:25;;;;;;;1.30;1.30;;;6.30;99.90;;;;;;4974001;28;20223;-67
2023/04/02 18:12:56;;;;;;;0.90;0.90;;;6.30;99.90;;;;;;4974252;28;20226;-67
2023/04/02 18:15:55;;;;;;;0.90;0.90;;;6.30;99.90;;;;;;4975567;28;20640;-67
2023/04/02 18:18:38;;;;;;;1.00;1.00;;;6.40;99.90;;;;;;4974174;28;20203;-67
2023/04/02 18:21:15;;;;;;;0.50;0.50;;;6.40;99.90;;;;;;4977504;28;20234;-67
2023/04/02 18:23:58;;;;;;;0.80;0.80;;;6.40;99.90;;;;;;4977639;28;20221;-68
2023/04/02 18:26:33;;;;;;;0.70;0.70;;;6.40;99.90;;;;;;4977459;28;20199;-67
2023/04/02 18:29:10;;;;;;;0.60;0.60;;;6.40;99.90;;;;;;4977587;28;20238;-67